sensor_id;sensor_type;location;lat;lon;timestamp;P1;durP1;ratioP1;P2;durP2;ratioP2
52166;SDS011;38149;52.666;6.428;2023-01-26T00:01:14;0.40;;;0.40;;
52166;SDS011;38149;52.666;6.428;2023-01-26T00:03:40;0.40;;;0.40;;
52166;SDS011;38149;52.666;6.428;2023-01-26T00:06:08;0.30;;;0.30;;
52166;SDS011;38149;52.666;6.428;2023-01-26T00:08:36;0.40;;;0.40;;
52166;SDS011;38149;52.666;6.428;2023-01-26T00:11:06;0.40;;;0.40;;
52166;SDS011;38149;52.666;6.428;2023-01-26T00:13:34;0.40;;;0.40;;
52166;SDS011;38149;52.666;6.428;2023-01-26T00:16:01;0.40;;;0.40;;
52166;SDS011;38149;52.666;6.428;2023-01-26T00:18:27;0.30;;;0.30;;
52166;SDS011;38149;52.666;6.428;2023-01-26T00:20:55;0.30;;;0.30;;
52166;SDS011;38149;52.666;6.428;2023-01-26T00:23:25;0.30;;;0.30;;
52166;SDS011;38149;52.666;6.428;2023-01-26T00:25:52;0.30;;;0.30;;
52166;SDS011;38149;52.666;6.428;2023-01-26T00:28:18;0.40;;;0.40;;
52166;SDS011;38149;52.666;6.428;2023-01-26T00:30:44;0.40;;;0.40;;
52166;SDS011;38149;52.666;6.428;2023-01-26T00:33:10;0.30;;;0.30;;
52166;SDS011;38149;52.666;6.428;2023-01-26T00:35:37;0.40;;;0.40;;
52166;SDS011;38149;52.666;6.428;2023-01-26T00:38:03;0.30;;;0.30;;
52166;SDS011;38149;52.666;6.428;2023-01-26T00:40:29;0.40;;;0.40;;
52166;SDS011;38149;52.666;6.428;2023-01-26T00:42:56;0.30;;;0.30;;
52166;SDS011;38149;52.666;6.428;2023-01-26T00:45:23;0.40;;;0.40;;
52166;SDS011;38149;52.666;6.428;2023-01-26T00:47:49;0.30;;;0.30;;
52166;SDS011;38149;52.666;6.428;2023-01-26T00:50:15;0.30;;;0.30;;
52166;SDS011;38149;52.666;6.428;2023-01-26T00:52:41;0.40;;;0.40;;
52166;SDS011;38149;52.666;6.428;2023-01-26T00:55:07;0.30;;;0.30;;
52166;SDS011;38149;52.666;6.428;2023-01-26T00:57:34;0.30;;;0.30;;
52166;SDS011;38149;52.666;6.428;2023-01-26T01:00:00;0.30;;;0.30;;
52166;SDS011;38149;52.666;6.428;2023-01-26T01:02:26;0.30;;;0.30;;
52166;SDS011;38149;52.666;6.428;2023-01-26T01:04:52;0.40;;;0.40;;
52166;SDS011;38149;52.666;6.428;2023-01-26T01:07:18;0.40;;;0.40;;
52166;SDS011;38149;52.666;6.428;2023-01-26T01:09:44;0.30;;;0.30;;
52166;SDS011;38149;52.666;6.428;2023-01-26T01:12:11;0.30;;;0.30;;
52166;SDS011;38149;52.666;6.428;2023-01-26T01:14:37;0.40;;;0.40;;
52166;SDS011;38149;52.666;6.428;2023-01-26T01:17:03;0.40;;;0.40;;
52166;SDS011;38149;52.666;6.428;2023-01-26T01:19:29;0.40;;;0.40;;
52166;SDS011;38149;52.666;6.428;2023-01-26T01:21:55;0.30;;;0.30;;
52166;SDS011;38149;52.666;6.428;2023-01-26T01:24:21;0.30;;;0.30;;
52166;SDS011;38149;52.666;6.428;2023-01-26T01:26:47;0.40;;;0.40;;
52166;SDS011;38149;52.666;6.428;2023-01-26T01:29:13;0.40;;;0.40;;
52166;SDS011;38149;52.666;6.428;2023-01-26T01:31:40;0.40;;;0.40;;
52166;SDS011;38149;52.666;6.428;2023-01-26T01:34:07;0.35;;;0.35;;
52166;SDS011;38149;52.666;6.428;2023-01-26T01:36:33;0.40;;;0.40;;
52166;SDS011;38149;52.666;6.428;2023-01-26T01:38:59;0.30;;;0.30;;
52166;SDS011;38149;52.666;6.428;2023-01-26T01:41:25;0.40;;;0.40;;
52166;SDS011;38149;52.666;6.428;2023-01-26T01:44:09;0.30;;;0.30;;
52166;SDS011;38149;52.666;6.428;2023-01-26T01:46:48;0.30;;;0.30;;
52166;SDS011;38149;52.666;6.428;2023-01-26T01:51:58;0.40;;;0.40;;
52166;SDS011;38149;52.666;6.428;2023-01-26T01:54:37;0.40;;;0.40;;
52166;SDS011;38149;52.666;6.428;2023-01-26T01:57:07;0.30;;;0.30;;
52166;SDS011;38149;52.666;6.428;2023-01-26T01:59:39;0.30;;;0.30;;
52166;SDS011;38149;52.666;6.428;2023-01-26T02:02:12;0.40;;;0.40;;
52166;SDS011;38149;52.666;6.428;2023-01-26T02:04:39;0.30;;;0.30;;
52166;SDS011;38149;52.666;6.428;2023-01-26T02:07:05;0.30;;;0.30;;
52166;SDS011;38149;52.666;6.428;2023-01-26T02:09:33;0.30;;;0.30;;
52166;SDS011;38149;52.666;6.428;2023-01-26T02:12:20;0.30;;;0.30;;
52166;SDS011;38149;52.666;6.428;2023-01-26T02:14:48;0.32;;;0.32;;
52166;SDS011;38149;52.666;6.428;2023-01-26T02:17:15;0.30;;;0.30;;
52166;SDS011;38149;52.666;6.428;2023-01-26T02:25:25;0.40;;;0.40;;
52166;SDS011;38149;52.666;6.428;2023-01-26T02:28:06;0.30;;;0.30;;
52166;SDS011;38149;52.666;6.428;2023-01-26T02:30:32;0.30;;;0.30;;
52166;SDS011;38149;52.666;6.428;2023-01-26T02:32:58;0.30;;;0.30;;
52166;SDS011;38149;52.666;6.428;2023-01-26T02:35:25;0.30;;;0.30;;
52166;SDS011;38149;52.666;6.428;2023-01-26T02:37:51;0.40;;;0.40;;
52166;SDS011;38149;52.666;6.428;2023-01-26T02:40:24;0.30;;;0.30;;
52166;SDS011;38149;52.666;6.428;2023-01-26T02:42:53;0.30;;;0.30;;
52166;SDS011;38149;52.666;6.428;2023-01-26T02:45:20;0.30;;;0.30;;
52166;SDS011;38149;52.666;6.428;2023-01-26T02:47:46;0.30;;;0.30;;
52166;SDS011;38149;52.666;6.428;2023-01-26T02:50:13;0.30;;;0.30;;
52166;SDS011;38149;52.666;6.428;2023-01-26T02:52:39;0.30;;;0.30;;
52166;SDS011;38149;52.666;6.428;2023-01-26T02:55:05;0.40;;;0.40;;
52166;SDS011;38149;52.666;6.428;2023-01-26T02:57:55;0.40;;;0.40;;
52166;SDS011;38149;52.666;6.428;2023-01-26T03:00:24;0.40;;;0.40;;
52166;SDS011;38149;52.666;6.428;2023-01-26T03:02:56;0.32;;;0.32;;
52166;SDS011;38149;52.666;6.428;2023-01-26T03:05:24;0.30;;;0.30;;
52166;SDS011;38149;52.666;6.428;2023-01-26T03:07:51;0.30;;;0.30;;
52166;SDS011;38149;52.666;6.428;2023-01-26T03:10:17;0.40;;;0.40;;
52166;SDS011;38149;52.666;6.428;2023-01-26T03:12:44;0.30;;;0.30;;
52166;SDS011;38149;52.666;6.428;2023-01-26T03:15:10;0.30;;;0.30;;
52166;SDS011;38149;52.666;6.428;2023-01-26T03:18:02;0.30;;;0.30;;
52166;SDS011;38149;52.666;6.428;2023-01-26T03:23:36;0.38;;;0.38;;
52166;SDS011;38149;52.666;6.428;2023-01-26T03:26:21;0.30;;;0.30;;
52166;SDS011;38149;52.666;6.428;2023-01-26T03:29:06;0.30;;;0.30;;
52166;SDS011;38149;52.666;6.428;2023-01-26T03:31:32;0.30;;;0.30;;
52166;SDS011;38149;52.666;6.428;2023-01-26T03:33:58;0.30;;;0.30;;
52166;SDS011;38149;52.666;6.428;2023-01-26T03:36:25;0.30;;;0.30;;
52166;SDS011;38149;52.666;6.428;2023-01-26T03:38:51;0.30;;;0.30;;
52166;SDS011;38149;52.666;6.428;2023-01-26T03:41:17;0.30;;;0.30;;
52166;SDS011;38149;52.666;6.428;2023-01-26T03:44:01;0.32;;;0.32;;
52166;SDS011;38149;52.666;6.428;2023-01-26T03:46:46;0.30;;;0.30;;
52166;SDS011;38149;52.666;6.428;2023-01-26T03:49:31;0.30;;;0.30;;
52166;SDS011;38149;52.666;6.428;2023-01-26T03:52:16;0.40;;;0.40;;
52166;SDS011;38149;52.666;6.428;2023-01-26T03:55:01;0.30;;;0.30;;
52166;SDS011;38149;52.666;6.428;2023-01-26T03:57:46;0.30;;;0.30;;
52166;SDS011;38149;52.666;6.428;2023-01-26T04:00:13;0.30;;;0.30;;
52166;SDS011;38149;52.666;6.428;2023-01-26T04:02:40;0.30;;;0.30;;
52166;SDS011;38149;52.666;6.428;2023-01-26T04:05:24;0.40;;;0.40;;
52166;SDS011;38149;52.666;6.428;2023-01-26T04:08:09;0.30;;;0.30;;
52166;SDS011;38149;52.666;6.428;2023-01-26T04:10:57;0.30;;;0.30;;
52166;SDS011;38149;52.666;6.428;2023-01-26T04:13:23;0.35;;;0.35;;
52166;SDS011;38149;52.666;6.428;2023-01-26T04:16:08;0.30;;;0.30;;
52166;SDS011;38149;52.666;6.428;2023-01-26T04:18:53;0.40;;;0.40;;
52166;SDS011;38149;52.666;6.428;2023-01-26T04:21:38;0.40;;;0.40;;
52166;SDS011;38149;52.666;6.428;2023-01-26T04:24:05;0.30;;;0.30;;
52166;SDS011;38149;52.666;6.428;2023-01-26T04:26:38;0.30;;;0.30;;
52166;SDS011;38149;52.666;6.428;2023-01-26T04:29:05;0.40;;;0.40;;
52166;SDS011;38149;52.666;6.428;2023-01-26T04:31:35;0.40;;;0.40;;
52166;SDS011;38149;52.666;6.428;2023-01-26T04:34:05;0.40;;;0.40;;
52166;SDS011;38149;52.666;6.428;2023-01-26T04:36:33;0.35;;;0.35;;
52166;SDS011;38149;52.666;6.428;2023-01-26T04:38:59;0.30;;;0.30;;
52166;SDS011;38149;52.666;6.428;2023-01-26T04:41:27;0.40;;;0.40;;
52166;SDS011;38149;52.666;6.428;2023-01-26T04:43:54;0.30;;;0.30;;
52166;SDS011;38149;52.666;6.428;2023-01-26T04:46:20;0.30;;;0.30;;
52166;SDS011;38149;52.666;6.428;2023-01-26T04:48:46;0.30;;;0.30;;
52166;SDS011;38149;52.666;6.428;2023-01-26T04:51:16;0.30;;;0.30;;
52166;SDS011;38149;52.666;6.428;2023-01-26T04:53:44;0.30;;;0.30;;
52166;SDS011;38149;52.666;6.428;2023-01-26T04:56:24;0.40;;;0.40;;
52166;SDS011;38149;52.666;6.428;2023-01-26T04:58:55;0.38;;;0.38;;
52166;SDS011;38149;52.666;6.428;2023-01-26T05:01:23;0.30;;;0.30;;
52166;SDS011;38149;52.666;6.428;2023-01-26T05:03:50;0.30;;;0.30;;
52166;SDS011;38149;52.666;6.428;2023-01-26T05:06:16;0.30;;;0.30;;
52166;SDS011;38149;52.666;6.428;2023-01-26T05:08:43;0.30;;;0.30;;
52166;SDS011;38149;52.666;6.428;2023-01-26T05:11:09;0.30;;;0.30;;
52166;SDS011;38149;52.666;6.428;2023-01-26T05:13:35;0.30;;;0.30;;
52166;SDS011;38149;52.666;6.428;2023-01-26T05:16:02;0.30;;;0.30;;
52166;SDS011;38149;52.666;6.428;2023-01-26T05:18:29;0.40;;;0.40;;
52166;SDS011;38149;52.666;6.428;2023-01-26T05:20:56;0.30;;;0.30;;
52166;SDS011;38149;52.666;6.428;2023-01-26T05:23:22;0.30;;;0.30;;
52166;SDS011;38149;52.666;6.428;2023-01-26T05:25:48;0.40;;;0.40;;
52166;SDS011;38149;52.666;6.428;2023-01-26T05:28:14;0.30;;;0.30;;
52166;SDS011;38149;52.666;6.428;2023-01-26T05:30:40;0.30;;;0.30;;
52166;SDS011;38149;52.666;6.428;2023-01-26T05:33:07;0.40;;;0.40;;
52166;SDS011;38149;52.666;6.428;2023-01-26T05:35:34;0.30;;;0.30;;
52166;SDS011;38149;52.666;6.428;2023-01-26T05:38:01;0.40;;;0.40;;
52166;SDS011;38149;52.666;6.428;2023-01-26T05:40:27;0.30;;;0.30;;
52166;SDS011;38149;52.666;6.428;2023-01-26T05:42:53;0.30;;;0.30;;
52166;SDS011;38149;52.666;6.428;2023-01-26T05:45:19;0.38;;;0.38;;
52166;SDS011;38149;52.666;6.428;2023-01-26T05:47:46;0.30;;;0.30;;
52166;SDS011;38149;52.666;6.428;2023-01-26T05:50:15;0.30;;;0.30;;
52166;SDS011;38149;52.666;6.428;2023-01-26T05:52:42;0.40;;;0.40;;
52166;SDS011;38149;52.666;6.428;2023-01-26T05:55:10;0.30;;;0.30;;
52166;SDS011;38149;52.666;6.428;2023-01-26T05:57:37;0.35;;;0.35;;
52166;SDS011;38149;52.666;6.428;2023-01-26T06:00:03;0.30;;;0.30;;
52166;SDS011;38149;52.666;6.428;2023-01-26T06:02:30;0.30;;;0.30;;
52166;SDS011;38149;52.666;6.428;2023-01-26T06:04:56;0.40;;;0.40;;
52166;SDS011;38149;52.666;6.428;2023-01-26T06:07:22;0.30;;;0.30;;
52166;SDS011;38149;52.666;6.428;2023-01-26T06:09:50;0.30;;;0.30;;
52166;SDS011;38149;52.666;6.428;2023-01-26T06:12:17;0.30;;;0.30;;
52166;SDS011;38149;52.666;6.428;2023-01-26T06:14:44;0.30;;;0.30;;
52166;SDS011;38149;52.666;6.428;2023-01-26T06:17:10;0.30;;;0.30;;
52166;SDS011;38149;52.666;6.428;2023-01-26T06:19:37;0.40;;;0.40;;
52166;SDS011;38149;52.666;6.428;2023-01-26T06:22:10;0.30;;;0.30;;
52166;SDS011;38149;52.666;6.428;2023-01-26T06:24:37;0.30;;;0.30;;
52166;SDS011;38149;52.666;6.428;2023-01-26T06:27:05;0.30;;;0.30;;
52166;SDS011;38149;52.666;6.428;2023-01-26T06:29:33;0.30;;;0.30;;
52166;SDS011;38149;52.666;6.428;2023-01-26T06:31:59;0.30;;;0.30;;
52166;SDS011;38149;52.666;6.428;2023-01-26T06:34:25;0.30;;;0.30;;
52166;SDS011;38149;52.666;6.428;2023-01-26T06:36:51;0.40;;;0.40;;
52166;SDS011;38149;52.666;6.428;2023-01-26T06:39:17;0.38;;;0.38;;
52166;SDS011;38149;52.666;6.428;2023-01-26T06:41:44;0.30;;;0.30;;
52166;SDS011;38149;52.666;6.428;2023-01-26T06:44:10;0.35;;;0.35;;
52166;SDS011;38149;52.666;6.428;2023-01-26T06:46:36;0.32;;;0.32;;
52166;SDS011;38149;52.666;6.428;2023-01-26T06:49:03;0.32;;;0.32;;
52166;SDS011;38149;52.666;6.428;2023-01-26T06:54:10;0.30;;;0.30;;
52166;SDS011;38149;52.666;6.428;2023-01-26T06:56:37;0.38;;;0.38;;
52166;SDS011;38149;52.666;6.428;2023-01-26T06:59:04;0.32;;;0.32;;
52166;SDS011;38149;52.666;6.428;2023-01-26T07:01:34;0.30;;;0.30;;
52166;SDS011;38149;52.666;6.428;2023-01-26T07:04:02;0.38;;;0.38;;
52166;SDS011;38149;52.666;6.428;2023-01-26T07:06:28;0.30;;;0.30;;
52166;SDS011;38149;52.666;6.428;2023-01-26T07:08:54;0.30;;;0.30;;
52166;SDS011;38149;52.666;6.428;2023-01-26T07:11:20;0.30;;;0.30;;
52166;SDS011;38149;52.666;6.428;2023-01-26T07:13:46;0.40;;;0.40;;
52166;SDS011;38149;52.666;6.428;2023-01-26T07:16:14;0.30;;;0.30;;
52166;SDS011;38149;52.666;6.428;2023-01-26T07:18:40;0.40;;;0.40;;
52166;SDS011;38149;52.666;6.428;2023-01-26T07:21:08;0.30;;;0.30;;
52166;SDS011;38149;52.666;6.428;2023-01-26T07:23:36;0.30;;;0.30;;
52166;SDS011;38149;52.666;6.428;2023-01-26T07:26:02;0.40;;;0.40;;
52166;SDS011;38149;52.666;6.428;2023-01-26T07:28:29;0.30;;;0.30;;
52166;SDS011;38149;52.666;6.428;2023-01-26T07:30:58;0.30;;;0.30;;
52166;SDS011;38149;52.666;6.428;2023-01-26T07:33:25;0.30;;;0.30;;
52166;SDS011;38149;52.666;6.428;2023-01-26T07:35:55;0.30;;;0.30;;
52166;SDS011;38149;52.666;6.428;2023-01-26T07:38:21;0.30;;;0.30;;
52166;SDS011;38149;52.666;6.428;2023-01-26T07:40:48;0.30;;;0.30;;
52166;SDS011;38149;52.666;6.428;2023-01-26T07:43:15;0.32;;;0.32;;
52166;SDS011;38149;52.666;6.428;2023-01-26T07:45:44;0.30;;;0.30;;
52166;SDS011;38149;52.666;6.428;2023-01-26T07:48:18;0.30;;;0.30;;
52166;SDS011;38149;52.666;6.428;2023-01-26T07:50:45;0.30;;;0.30;;
52166;SDS011;38149;52.666;6.428;2023-01-26T07:53:12;0.30;;;0.30;;
52166;SDS011;38149;52.666;6.428;2023-01-26T07:55:39;0.30;;;0.30;;
52166;SDS011;38149;52.666;6.428;2023-01-26T07:58:09;0.40;;;0.40;;
52166;SDS011;38149;52.666;6.428;2023-01-26T08:00:35;0.30;;;0.30;;
52166;SDS011;38149;52.666;6.428;2023-01-26T08:03:02;0.40;;;0.40;;
52166;SDS011;38149;52.666;6.428;2023-01-26T08:05:28;0.30;;;0.30;;
52166;SDS011;38149;52.666;6.428;2023-01-26T08:07:58;0.38;;;0.38;;
52166;SDS011;38149;52.666;6.428;2023-01-26T08:10:28;0.40;;;0.40;;
52166;SDS011;38149;52.666;6.428;2023-01-26T08:12:55;0.35;;;0.35;;
52166;SDS011;38149;52.666;6.428;2023-01-26T08:15:25;0.30;;;0.30;;
52166;SDS011;38149;52.666;6.428;2023-01-26T08:17:52;0.40;;;0.40;;
52166;SDS011;38149;52.666;6.428;2023-01-26T08:20:19;0.30;;;0.30;;
52166;SDS011;38149;52.666;6.428;2023-01-26T08:22:45;0.30;;;0.30;;
52166;SDS011;38149;52.666;6.428;2023-01-26T08:25:11;0.30;;;0.30;;
52166;SDS011;38149;52.666;6.428;2023-01-26T08:27:37;0.30;;;0.30;;
52166;SDS011;38149;52.666;6.428;2023-01-26T08:30:04;0.30;;;0.30;;
52166;SDS011;38149;52.666;6.428;2023-01-26T08:32:30;0.30;;;0.30;;
52166;SDS011;38149;52.666;6.428;2023-01-26T08:34:56;0.40;;;0.40;;
52166;SDS011;38149;52.666;6.428;2023-01-26T08:37:23;0.40;;;0.40;;
52166;SDS011;38149;52.666;6.428;2023-01-26T08:39:49;0.30;;;0.30;;
52166;SDS011;38149;52.666;6.428;2023-01-26T08:42:15;0.32;;;0.32;;
52166;SDS011;38149;52.666;6.428;2023-01-26T08:44:41;0.30;;;0.30;;
52166;SDS011;38149;52.666;6.428;2023-01-26T08:47:07;0.30;;;0.30;;
52166;SDS011;38149;52.666;6.428;2023-01-26T08:49:33;0.40;;;0.40;;
52166;SDS011;38149;52.666;6.428;2023-01-26T08:51:59;0.30;;;0.30;;
52166;SDS011;38149;52.666;6.428;2023-01-26T08:54:25;0.30;;;0.30;;
52166;SDS011;38149;52.666;6.428;2023-01-26T08:56:52;0.38;;;0.38;;
52166;SDS011;38149;52.666;6.428;2023-01-26T08:59:19;0.30;;;0.30;;
52166;SDS011;38149;52.666;6.428;2023-01-26T09:01:46;0.30;;;0.30;;
52166;SDS011;38149;52.666;6.428;2023-01-26T09:04:13;0.40;;;0.40;;
52166;SDS011;38149;52.666;6.428;2023-01-26T09:06:39;0.30;;;0.30;;
52166;SDS011;38149;52.666;6.428;2023-01-26T09:09:05;0.40;;;0.40;;
52166;SDS011;38149;52.666;6.428;2023-01-26T09:11:37;0.40;;;0.40;;
52166;SDS011;38149;52.666;6.428;2023-01-26T09:14:03;0.40;;;0.40;;
52166;SDS011;38149;52.666;6.428;2023-01-26T09:16:29;0.30;;;0.30;;
52166;SDS011;38149;52.666;6.428;2023-01-26T09:18:55;0.30;;;0.30;;
52166;SDS011;38149;52.666;6.428;2023-01-26T09:21:22;0.32;;;0.32;;
52166;SDS011;38149;52.666;6.428;2023-01-26T09:23:48;0.30;;;0.30;;
52166;SDS011;38149;52.666;6.428;2023-01-26T09:26:14;0.30;;;0.30;;
52166;SDS011;38149;52.666;6.428;2023-01-26T09:28:40;0.50;;;0.50;;
52166;SDS011;38149;52.666;6.428;2023-01-26T09:31:07;0.38;;;0.38;;
52166;SDS011;38149;52.666;6.428;2023-01-26T09:33:34;0.32;;;0.32;;
52166;SDS011;38149;52.666;6.428;2023-01-26T09:36:10;0.30;;;0.30;;
52166;SDS011;38149;52.666;6.428;2023-01-26T09:38:36;0.30;;;0.30;;
52166;SDS011;38149;52.666;6.428;2023-01-26T09:41:05;0.30;;;0.30;;
52166;SDS011;38149;52.666;6.428;2023-01-26T09:43:51;0.30;;;0.30;;
52166;SDS011;38149;52.666;6.428;2023-01-26T09:46:23;0.30;;;0.30;;
52166;SDS011;38149;52.666;6.428;2023-01-26T09:56:55;0.30;;;0.30;;
52166;SDS011;38149;52.666;6.428;2023-01-26T09:59:39;0.30;;;0.30;;
52166;SDS011;38149;52.666;6.428;2023-01-26T10:06:04;0.40;;;0.40;;
52166;SDS011;38149;52.666;6.428;2023-01-26T10:08:13;0.30;;;0.30;;
52166;SDS011;38149;52.666;6.428;2023-01-26T10:13:49;0.30;;;0.30;;
52166;SDS011;38149;52.666;6.428;2023-01-26T10:16:19;0.30;;;0.30;;
52166;SDS011;38149;52.666;6.428;2023-01-26T10:18:53;0.30;;;0.30;;
52166;SDS011;38149;52.666;6.428;2023-01-26T10:21:27;0.30;;;0.30;;
52166;SDS011;38149;52.666;6.428;2023-01-26T10:23:58;0.30;;;0.30;;
52166;SDS011;38149;52.666;6.428;2023-01-26T10:26:27;0.30;;;0.30;;
52166;SDS011;38149;52.666;6.428;2023-01-26T10:28:55;0.30;;;0.30;;
52166;SDS011;38149;52.666;6.428;2023-01-26T10:31:24;0.30;;;0.30;;
52166;SDS011;38149;52.666;6.428;2023-01-26T10:33:55;0.30;;;0.30;;
52166;SDS011;38149;52.666;6.428;2023-01-26T10:36:33;0.30;;;0.30;;
52166;SDS011;38149;52.666;6.428;2023-01-26T10:39:18;0.20;;;0.20;;
52166;SDS011;38149;52.666;6.428;2023-01-26T10:44:31;0.30;;;0.30;;
52166;SDS011;38149;52.666;6.428;2023-01-26T10:47:14;0.30;;;0.30;;
52166;SDS011;38149;52.666;6.428;2023-01-26T10:49:41;0.30;;;0.30;;
52166;SDS011;38149;52.666;6.428;2023-01-26T10:54:47;0.30;;;0.30;;
52166;SDS011;38149;52.666;6.428;2023-01-26T10:57:25;0.20;;;0.20;;
52166;SDS011;38149;52.666;6.428;2023-01-26T10:59:54;0.30;;;0.30;;
52166;SDS011;38149;52.666;6.428;2023-01-26T11:02:26;0.20;;;0.20;;
52166;SDS011;38149;52.666;6.428;2023-01-26T11:05:27;0.30;;;0.30;;
52166;SDS011;38149;52.666;6.428;2023-01-26T11:07:48;0.30;;;0.30;;
52166;SDS011;38149;52.666;6.428;2023-01-26T11:13:14;0.20;;;0.20;;
52166;SDS011;38149;52.666;6.428;2023-01-26T11:15:44;0.30;;;0.30;;
52166;SDS011;38149;52.666;6.428;2023-01-26T11:40:38;0.20;;;0.20;;
52166;SDS011;38149;52.666;6.428;2023-01-26T11:43:31;0.20;;;0.20;;
52166;SDS011;38149;52.666;6.428;2023-01-26T12:04:50;0.30;;;0.30;;
52166;SDS011;38149;52.666;6.428;2023-01-26T12:07:27;0.20;;;0.20;;
52166;SDS011;38149;52.666;6.428;2023-01-26T12:15:17;0.20;;;0.20;;
52166;SDS011;38149;52.666;6.428;2023-01-26T12:18:16;0.20;;;0.20;;
52166;SDS011;38149;52.666;6.428;2023-01-26T12:20:53;0.20;;;0.20;;
52166;SDS011;38149;52.666;6.428;2023-01-26T12:23:32;0.20;;;0.20;;
52166;SDS011;38149;52.666;6.428;2023-01-26T12:26:21;0.22;;;0.22;;
52166;SDS011;38149;52.666;6.428;2023-01-26T12:28:55;0.20;;;0.20;;
52166;SDS011;38149;52.666;6.428;2023-01-26T12:31:33;0.20;;;0.20;;
52166;SDS011;38149;52.666;6.428;2023-01-26T12:34:10;0.30;;;0.30;;
52166;SDS011;38149;52.666;6.428;2023-01-26T12:39:26;0.20;;;0.20;;
52166;SDS011;38149;52.666;6.428;2023-01-26T12:42:18;0.25;;;0.25;;
52166;SDS011;38149;52.666;6.428;2023-01-26T12:44:54;0.20;;;0.20;;
52166;SDS011;38149;52.666;6.428;2023-01-26T12:47:33;0.20;;;0.20;;
52166;SDS011;38149;52.666;6.428;2023-01-26T12:55:33;0.20;;;0.20;;
52166;SDS011;38149;52.666;6.428;2023-01-26T12:58:18;0.20;;;0.20;;
52166;SDS011;38149;52.666;6.428;2023-01-26T13:00:55;0.20;;;0.20;;
52166;SDS011;38149;52.666;6.428;2023-01-26T13:03:44;0.20;;;0.20;;
52166;SDS011;38149;52.666;6.428;2023-01-26T13:08:45;0.20;;;0.20;;
52166;SDS011;38149;52.666;6.428;2023-01-26T13:14:19;0.20;;;0.20;;
52166;SDS011;38149;52.666;6.428;2023-01-26T13:16:48;0.20;;;0.20;;
52166;SDS011;38149;52.666;6.428;2023-01-26T13:19:34;0.20;;;0.20;;
52166;SDS011;38149;52.666;6.428;2023-01-26T13:24:48;0.20;;;0.20;;
52166;SDS011;38149;52.666;6.428;2023-01-26T13:27:29;0.20;;;0.20;;
52166;SDS011;38149;52.666;6.428;2023-01-26T13:30:02;0.20;;;0.20;;
52166;SDS011;38149;52.666;6.428;2023-01-26T13:35:13;0.20;;;0.20;;
52166;SDS011;38149;52.666;6.428;2023-01-26T13:46:06;0.20;;;0.20;;
52166;SDS011;38149;52.666;6.428;2023-01-26T13:51:13;0.20;;;0.20;;
52166;SDS011;38149;52.666;6.428;2023-01-26T13:56:38;0.20;;;0.20;;
52166;SDS011;38149;52.666;6.428;2023-01-26T13:59:10;0.20;;;0.20;;
52166;SDS011;38149;52.666;6.428;2023-01-26T14:01:41;0.20;;;0.20;;
52166;SDS011;38149;52.666;6.428;2023-01-26T14:04:12;0.20;;;0.20;;
52166;SDS011;38149;52.666;6.428;2023-01-26T14:06:40;0.20;;;0.20;;
52166;SDS011;38149;52.666;6.428;2023-01-26T14:09:10;0.20;;;0.20;;
52166;SDS011;38149;52.666;6.428;2023-01-26T14:11:37;0.20;;;0.20;;
52166;SDS011;38149;52.666;6.428;2023-01-26T14:14:04;0.20;;;0.20;;
52166;SDS011;38149;52.666;6.428;2023-01-26T14:16:32;0.20;;;0.20;;
52166;SDS011;38149;52.666;6.428;2023-01-26T14:19:13;0.20;;;0.20;;
52166;SDS011;38149;52.666;6.428;2023-01-26T14:21:47;0.20;;;0.20;;
52166;SDS011;38149;52.666;6.428;2023-01-26T14:24:25;0.20;;;0.20;;
52166;SDS011;38149;52.666;6.428;2023-01-26T14:26:59;0.20;;;0.20;;
52166;SDS011;38149;52.666;6.428;2023-01-26T14:29:29;0.20;;;0.20;;
52166;SDS011;38149;52.666;6.428;2023-01-26T14:31:56;0.20;;;0.20;;
52166;SDS011;38149;52.666;6.428;2023-01-26T14:34:27;0.20;;;0.20;;
52166;SDS011;38149;52.666;6.428;2023-01-26T14:37:05;0.20;;;0.20;;
52166;SDS011;38149;52.666;6.428;2023-01-26T14:39:34;0.20;;;0.20;;
52166;SDS011;38149;52.666;6.428;2023-01-26T14:42:00;0.20;;;0.20;;
52166;SDS011;38149;52.666;6.428;2023-01-26T14:44:26;0.20;;;0.20;;
52166;SDS011;38149;52.666;6.428;2023-01-26T14:46:58;0.20;;;0.20;;
52166;SDS011;38149;52.666;6.428;2023-01-26T14:49:35;0.20;;;0.20;;
52166;SDS011;38149;52.666;6.428;2023-01-26T14:52:16;0.20;;;0.20;;
52166;SDS011;38149;52.666;6.428;2023-01-26T14:54:48;0.20;;;0.20;;
52166;SDS011;38149;52.666;6.428;2023-01-26T14:57:20;0.20;;;0.20;;
52166;SDS011;38149;52.666;6.428;2023-01-26T14:59:55;0.20;;;0.20;;
52166;SDS011;38149;52.666;6.428;2023-01-26T15:02:23;0.20;;;0.20;;
52166;SDS011;38149;52.666;6.428;2023-01-26T15:05:11;0.20;;;0.20;;
52166;SDS011;38149;52.666;6.428;2023-01-26T15:08:05;0.20;;;0.20;;
52166;SDS011;38149;52.666;6.428;2023-01-26T15:11:04;0.20;;;0.20;;
52166;SDS011;38149;52.666;6.428;2023-01-26T15:13:52;0.20;;;0.20;;
52166;SDS011;38149;52.666;6.428;2023-01-26T15:16:20;0.20;;;0.20;;
52166;SDS011;38149;52.666;6.428;2023-01-26T15:19:00;0.20;;;0.20;;
52166;SDS011;38149;52.666;6.428;2023-01-26T15:21:34;0.20;;;0.20;;
52166;SDS011;38149;52.666;6.428;2023-01-26T15:24:04;0.20;;;0.20;;
52166;SDS011;38149;52.666;6.428;2023-01-26T15:26:35;0.20;;;0.20;;
52166;SDS011;38149;52.666;6.428;2023-01-26T15:29:03;0.20;;;0.20;;
52166;SDS011;38149;52.666;6.428;2023-01-26T15:31:36;0.20;;;0.20;;
52166;SDS011;38149;52.666;6.428;2023-01-26T15:34:04;0.20;;;0.20;;
52166;SDS011;38149;52.666;6.428;2023-01-26T15:36:42;0.20;;;0.20;;
52166;SDS011;38149;52.666;6.428;2023-01-26T15:39:12;0.20;;;0.20;;
52166;SDS011;38149;52.666;6.428;2023-01-26T15:41:40;0.20;;;0.20;;
52166;SDS011;38149;52.666;6.428;2023-01-26T15:44:17;0.20;;;0.20;;
52166;SDS011;38149;52.666;6.428;2023-01-26T15:46:44;0.20;;;0.20;;
52166;SDS011;38149;52.666;6.428;2023-01-26T15:49:10;0.20;;;0.20;;
52166;SDS011;38149;52.666;6.428;2023-01-26T15:51:37;0.20;;;0.20;;
52166;SDS011;38149;52.666;6.428;2023-01-26T15:54:03;0.20;;;0.20;;
52166;SDS011;38149;52.666;6.428;2023-01-26T15:56:31;0.20;;;0.20;;
52166;SDS011;38149;52.666;6.428;2023-01-26T15:58:57;0.20;;;0.20;;
52166;SDS011;38149;52.666;6.428;2023-01-26T16:01:23;0.20;;;0.20;;
52166;SDS011;38149;52.666;6.428;2023-01-26T16:03:49;0.20;;;0.20;;
52166;SDS011;38149;52.666;6.428;2023-01-26T16:06:18;0.20;;;0.20;;
52166;SDS011;38149;52.666;6.428;2023-01-26T16:08:45;0.20;;;0.20;;
52166;SDS011;38149;52.666;6.428;2023-01-26T16:11:11;0.20;;;0.20;;
52166;SDS011;38149;52.666;6.428;2023-01-26T16:13:38;0.20;;;0.20;;
52166;SDS011;38149;52.666;6.428;2023-01-26T16:16:08;0.20;;;0.20;;
52166;SDS011;38149;52.666;6.428;2023-01-26T16:18:34;0.20;;;0.20;;
52166;SDS011;38149;52.666;6.428;2023-01-26T16:21:00;0.20;;;0.20;;
52166;SDS011;38149;52.666;6.428;2023-01-26T16:23:27;0.20;;;0.20;;
52166;SDS011;38149;52.666;6.428;2023-01-26T16:25:55;0.20;;;0.20;;
52166;SDS011;38149;52.666;6.428;2023-01-26T16:28:21;0.20;;;0.20;;
52166;SDS011;38149;52.666;6.428;2023-01-26T16:30:48;0.20;;;0.20;;
52166;SDS011;38149;52.666;6.428;2023-01-26T16:33:16;0.20;;;0.20;;
52166;SDS011;38149;52.666;6.428;2023-01-26T16:35:45;0.20;;;0.20;;
52166;SDS011;38149;52.666;6.428;2023-01-26T16:38:11;0.20;;;0.20;;
52166;SDS011;38149;52.666;6.428;2023-01-26T16:40:38;0.20;;;0.20;;
52166;SDS011;38149;52.666;6.428;2023-01-26T16:43:10;0.20;;;0.20;;
52166;SDS011;38149;52.666;6.428;2023-01-26T16:45:45;0.20;;;0.20;;
52166;SDS011;38149;52.666;6.428;2023-01-26T16:48:12;0.20;;;0.20;;
52166;SDS011;38149;52.666;6.428;2023-01-26T16:50:39;0.20;;;0.20;;
52166;SDS011;38149;52.666;6.428;2023-01-26T16:53:13;0.20;;;0.20;;
52166;SDS011;38149;52.666;6.428;2023-01-26T16:55:43;0.20;;;0.20;;
52166;SDS011;38149;52.666;6.428;2023-01-26T16:58:09;0.20;;;0.20;;
52166;SDS011;38149;52.666;6.428;2023-01-26T17:00:35;0.20;;;0.20;;
52166;SDS011;38149;52.666;6.428;2023-01-26T17:03:02;0.20;;;0.20;;